sensor_id;sensor_type;location;lat;lon;timestamp;temperature;humidity
67093;SHT31;54011;50.772;7.730;2023-06-14T00:01:21;21.08;48.03
67093;SHT31;54011;50.772;7.730;2023-06-14T00:03:47;21.11;47.99
67093;SHT31;54011;50.772;7.730;2023-06-14T00:06:14;21.04;48.15
67093;SHT31;54011;50.772;7.730;2023-06-14T00:08:39;20.70;48.84
67093;SHT31;54011;50.772;7.730;2023-06-14T00:11:06;20.61;49.24
67093;SHT31;54011;50.772;7.730;2023-06-14T00:13:32;20.85;48.52
67093;SHT31;54011;50.772;7.730;2023-06-14T00:15:57;20.60;48.93
67093;SHT31;54011;50.772;7.730;2023-06-14T00:18:23;20.51;49.15
67093;SHT31;54011;50.772;7.730;2023-06-14T00:20:55;20.44;49.13
67093;SHT31;54011;50.772;7.730;2023-06-14T00:23:21;20.92;48.17
67093;SHT31;54011;50.772;7.730;2023-06-14T00:25:47;20.95;48.58
67093;SHT31;54011;50.772;7.730;2023-06-14T00:28:12;20.78;48.39
67093;SHT31;54011;50.772;7.730;2023-06-14T00:30:38;20.91;48.46
67093;SHT31;54011;50.772;7.730;2023-06-14T00:33:03;20.27;49.20
67093;SHT31;54011;50.772;7.730;2023-06-14T00:35:29;20.45;49.01
67093;SHT31;54011;50.772;7.730;2023-06-14T00:37:56;19.99;49.63
67093;SHT31;54011;50.772;7.730;2023-06-14T00:40:22;20.32;49.15
67093;SHT31;54011;50.772;7.730;2023-06-14T00:42:48;20.27;49.13
67093;SHT31;54011;50.772;7.730;2023-06-14T00:45:13;20.03;49.80
67093;SHT31;54011;50.772;7.730;2023-06-14T00:47:41;20.24;49.66
67093;SHT31;54011;50.772;7.730;2023-06-14T00:50:07;20.14;49.52
67093;SHT31;54011;50.772;7.730;2023-06-14T00:52:34;20.19;49.93
67093;SHT31;54011;50.772;7.730;2023-06-14T00:55:00;20.06;50.15
67093;SHT31;54011;50.772;7.730;2023-06-14T00:57:26;19.92;50.06
67093;SHT31;54011;50.772;7.730;2023-06-14T00:59:52;19.95;50.30
67093;SHT31;54011;50.772;7.730;2023-06-14T01:02:18;19.92;49.76
67093;SHT31;54011;50.772;7.730;2023-06-14T01:04:46;20.10;49.50
67093;SHT31;54011;50.772;7.730;2023-06-14T01:13:37;19.95;49.07
67093;SHT31;54011;50.772;7.730;2023-06-14T01:16:05;20.13;48.93
67093;SHT31;54011;50.772;7.730;2023-06-14T01:18:31;20.02;49.06
67093;SHT31;54011;50.772;7.730;2023-06-14T01:20:57;19.93;49.01
67093;SHT31;54011;50.772;7.730;2023-06-14T01:23:24;20.05;48.97
67093;SHT31;54011;50.772;7.730;2023-06-14T01:25:51;19.75;49.18
67093;SHT31;54011;50.772;7.730;2023-06-14T01:28:21;20.00;48.74
67093;SHT31;54011;50.772;7.730;2023-06-14T01:30:52;20.03;49.18
67093;SHT31;54011;50.772;7.730;2023-06-14T01:33:23;20.20;48.55
67093;SHT31;54011;50.772;7.730;2023-06-14T01:35:50;20.09;48.96
67093;SHT31;54011;50.772;7.730;2023-06-14T01:38:18;19.83;49.22
67093;SHT31;54011;50.772;7.730;2023-06-14T01:40:44;19.81;49.62
67093;SHT31;54011;50.772;7.730;2023-06-14T01:43:13;20.02;49.42
67093;SHT31;54011;50.772;7.730;2023-06-14T01:45:40;20.06;48.62
67093;SHT31;54011;50.772;7.730;2023-06-14T01:48:05;20.00;48.60
67093;SHT31;54011;50.772;7.730;2023-06-14T01:50:31;19.87;48.94
67093;SHT31;54011;50.772;7.730;2023-06-14T01:52:57;19.61;49.22
67093;SHT31;54011;50.772;7.730;2023-06-14T01:55:23;19.79;48.95
67093;SHT31;54011;50.772;7.730;2023-06-14T01:57:53;19.86;48.84
67093;SHT31;54011;50.772;7.730;2023-06-14T02:00:19;19.79;48.91
67093;SHT31;54011;50.772;7.730;2023-06-14T02:02:47;19.83;48.74
67093;SHT31;54011;50.772;7.730;2023-06-14T02:05:12;19.79;48.56
67093;SHT31;54011;50.772;7.730;2023-06-14T02:07:40;19.82;48.65
67093;SHT31;54011;50.772;7.730;2023-06-14T02:10:07;19.57;48.98
67093;SHT31;54011;50.772;7.730;2023-06-14T02:12:32;19.57;49.10
67093;SHT31;54011;50.772;7.730;2023-06-14T02:14:58;19.61;48.97
67093;SHT31;54011;50.772;7.730;2023-06-14T02:17:23;19.52;49.14
67093;SHT31;54011;50.772;7.730;2023-06-14T02:19:48;19.61;50.67
67093;SHT31;54011;50.772;7.730;2023-06-14T02:22:15;19.59;51.73
67093;SHT31;54011;50.772;7.730;2023-06-14T02:24:41;19.36;52.26
67093;SHT31;54011;50.772;7.730;2023-06-14T02:27:07;19.24;52.20
67093;SHT31;54011;50.772;7.730;2023-06-14T02:29:36;19.11;52.93
67093;SHT31;54011;50.772;7.730;2023-06-14T02:32:04;18.56;54.26
67093;SHT31;54011;50.772;7.730;2023-06-14T02:34:30;18.56;54.46
67093;SHT31;54011;50.772;7.730;2023-06-14T02:36:55;18.36;54.69
67093;SHT31;54011;50.772;7.730;2023-06-14T02:39:22;18.43;54.77
67093;SHT31;54011;50.772;7.730;2023-06-14T02:41:51;18.46;54.39
67093;SHT31;54011;50.772;7.730;2023-06-14T02:44:19;18.73;53.47
67093;SHT31;54011;50.772;7.730;2023-06-14T02:46:45;18.60;53.84
67093;SHT31;54011;50.772;7.730;2023-06-14T02:49:13;18.87;52.59
67093;SHT31;54011;50.772;7.730;2023-06-14T02:51:39;18.99;52.30
67093;SHT31;54011;50.772;7.730;2023-06-14T02:54:05;18.80;51.94
67093;SHT31;54011;50.772;7.730;2023-06-14T02:56:31;19.00;51.41
67093;SHT31;54011;50.772;7.730;2023-06-14T02:58:57;18.80;51.51
67093;SHT31;54011;50.772;7.730;2023-06-14T03:01:25;18.76;51.37
67093;SHT31;54011;50.772;7.730;2023-06-14T03:04:03;19.00;51.55
67093;SHT31;54011;50.772;7.730;2023-06-14T03:06:30;18.83;52.00
67093;SHT31;54011;50.772;7.730;2023-06-14T03:08:57;18.63;52.84
67093;SHT31;54011;50.772;7.730;2023-06-14T03:11:31;19.04;51.57
67093;SHT31;54011;50.772;7.730;2023-06-14T03:13:57;18.82;51.87
67093;SHT31;54011;50.772;7.730;2023-06-14T03:16:25;18.82;50.89
67093;SHT31;54011;50.772;7.730;2023-06-14T03:18:54;19.08;50.54
67093;SHT31;54011;50.772;7.730;2023-06-14T03:21:23;19.00;50.90
67093;SHT31;54011;50.772;7.730;2023-06-14T03:23:50;18.79;51.99
67093;SHT31;54011;50.772;7.730;2023-06-14T03:26:16;18.77;52.92
67093;SHT31;54011;50.772;7.730;2023-06-14T03:28:45;18.45;53.55
67093;SHT31;54011;50.772;7.730;2023-06-14T03:31:12;18.42;54.10
67093;SHT31;54011;50.772;7.730;2023-06-14T03:33:38;18.56;54.21
67093;SHT31;54011;50.772;7.730;2023-06-14T03:36:04;18.22;54.76
67093;SHT31;54011;50.772;7.730;2023-06-14T03:38:31;18.09;55.34
67093;SHT31;54011;50.772;7.730;2023-06-14T03:40:56;18.02;55.50
67093;SHT31;54011;50.772;7.730;2023-06-14T03:43:22;18.08;54.82
67093;SHT31;54011;50.772;7.730;2023-06-14T03:45:48;17.59;56.37
67093;SHT31;54011;50.772;7.730;2023-06-14T03:48:17;17.73;55.94
67093;SHT31;54011;50.772;7.730;2023-06-14T03:50:42;17.66;56.01
67093;SHT31;54011;50.772;7.730;2023-06-14T03:53:08;17.40;56.80
67093;SHT31;54011;50.772;7.730;2023-06-14T03:55:37;17.74;56.24
67093;SHT31;54011;50.772;7.730;2023-06-14T03:58:04;17.83;55.90
67093;SHT31;54011;50.772;7.730;2023-06-14T04:00:30;18.11;54.07
67093;SHT31;54011;50.772;7.730;2023-06-14T04:02:55;18.14;53.50
67093;SHT31;54011;50.772;7.730;2023-06-14T04:05:21;18.14;53.28
67093;SHT31;54011;50.772;7.730;2023-06-14T04:07:49;18.29;52.96
67093;SHT31;54011;50.772;7.730;2023-06-14T04:10:16;18.49;52.15
67093;SHT31;54011;50.772;7.730;2023-06-14T04:12:42;18.46;52.15
67093;SHT31;54011;50.772;7.730;2023-06-14T04:15:08;18.41;52.31
67093;SHT31;54011;50.772;7.730;2023-06-14T04:17:35;18.36;52.21
67093;SHT31;54011;50.772;7.730;2023-06-14T04:20:02;18.56;52.25
67093;SHT31;54011;50.772;7.730;2023-06-14T04:22:32;18.67;52.07
67093;SHT31;54011;50.772;7.730;2023-06-14T04:24:58;18.53;52.13
67093;SHT31;54011;50.772;7.730;2023-06-14T04:27:28;18.66;51.85
67093;SHT31;54011;50.772;7.730;2023-06-14T04:29:56;18.65;51.87
67093;SHT31;54011;50.772;7.730;2023-06-14T04:32:26;18.52;51.89
67093;SHT31;54011;50.772;7.730;2023-06-14T04:34:54;18.48;51.90
67093;SHT31;54011;50.772;7.730;2023-06-14T04:37:21;18.65;51.72
67093;SHT31;54011;50.772;7.730;2023-06-14T04:39:49;18.80;51.49
67093;SHT31;54011;50.772;7.730;2023-06-14T04:42:16;19.00;51.75
67093;SHT31;54011;50.772;7.730;2023-06-14T04:44:43;18.92;51.79
67093;SHT31;54011;50.772;7.730;2023-06-14T04:47:10;18.83;51.58
67093;SHT31;54011;50.772;7.730;2023-06-14T04:49:38;18.79;51.67
67093;SHT31;54011;50.772;7.730;2023-06-14T04:52:05;19.04;51.51
67093;SHT31;54011;50.772;7.730;2023-06-14T04:54:37;18.83;52.23
67093;SHT31;54011;50.772;7.730;2023-06-14T04:57:04;18.80;52.27
67093;SHT31;54011;50.772;7.730;2023-06-14T04:59:31;18.86;52.02
67093;SHT31;54011;50.772;7.730;2023-06-14T05:01:58;19.28;51.35
67093;SHT31;54011;50.772;7.730;2023-06-14T05:04:25;19.43;50.92
67093;SHT31;54011;50.772;7.730;2023-06-14T05:06:52;19.38;51.19
67093;SHT31;54011;50.772;7.730;2023-06-14T05:09:20;19.59;50.65
67093;SHT31;54011;50.772;7.730;2023-06-14T05:11:46;19.30;51.68
67093;SHT31;54011;50.772;7.730;2023-06-14T05:14:13;19.61;50.64
67093;SHT31;54011;50.772;7.730;2023-06-14T05:16:39;19.57;51.26
67093;SHT31;54011;50.772;7.730;2023-06-14T05:19:05;19.74;50.43
67093;SHT31;54011;50.772;7.730;2023-06-14T05:21:31;19.57;51.04
67093;SHT31;54011;50.772;7.730;2023-06-14T05:23:58;19.97;50.53
67093;SHT31;54011;50.772;7.730;2023-06-14T05:26:24;20.24;50.20
67093;SHT31;54011;50.772;7.730;2023-06-14T05:28:54;20.24;50.65
67093;SHT31;54011;50.772;7.730;2023-06-14T05:31:22;19.82;50.52
67093;SHT31;54011;50.772;7.730;2023-06-14T05:33:48;20.14;50.14
67093;SHT31;54011;50.772;7.730;2023-06-14T05:36:14;20.33;49.29
67093;SHT31;54011;50.772;7.730;2023-06-14T05:38:39;20.60;48.88
67093;SHT31;54011;50.772;7.730;2023-06-14T05:41:05;20.32;50.01
67093;SHT31;54011;50.772;7.730;2023-06-14T05:43:31;20.45;49.27
67093;SHT31;54011;50.772;7.730;2023-06-14T05:45:57;20.68;49.41
67093;SHT31;54011;50.772;7.730;2023-06-14T05:48:22;20.65;48.70
67093;SHT31;54011;50.772;7.730;2023-06-14T05:50:48;20.75;48.57
67093;SHT31;54011;50.772;7.730;2023-06-14T05:53:13;20.63;48.91
67093;SHT31;54011;50.772;7.730;2023-06-14T05:55:39;20.99;48.57
67093;SHT31;54011;50.772;7.730;2023-06-14T05:58:04;21.06;48.31
67093;SHT31;54011;50.772;7.730;2023-06-14T06:00:30;21.08;48.87
67093;SHT31;54011;50.772;7.730;2023-06-14T06:02:55;21.72;47.82
67093;SHT31;54011;50.772;7.730;2023-06-14T06:05:23;21.12;48.18
67093;SHT31;54011;50.772;7.730;2023-06-14T06:07:48;21.56;47.70
67093;SHT31;54011;50.772;7.730;2023-06-14T06:10:14;21.91;47.00
67093;SHT31;54011;50.772;7.730;2023-06-14T06:12:41;21.82;47.30
67093;SHT31;54011;50.772;7.730;2023-06-14T06:15:07;21.83;47.08
67093;SHT31;54011;50.772;7.730;2023-06-14T06:17:33;21.79;47.07
67093;SHT31;54011;50.772;7.730;2023-06-14T06:19:59;22.22;46.03
67093;SHT31;54011;50.772;7.730;2023-06-14T06:22:25;22.08;46.80
67093;SHT31;54011;50.772;7.730;2023-06-14T06:24:51;21.77;46.48
67093;SHT31;54011;50.772;7.730;2023-06-14T06:27:18;22.27;46.11
67093;SHT31;54011;50.772;7.730;2023-06-14T06:29:44;22.17;46.20
67093;SHT31;54011;50.772;7.730;2023-06-14T06:32:10;21.84;45.73
67093;SHT31;54011;50.772;7.730;2023-06-14T06:34:35;22.31;45.93
67093;SHT31;54011;50.772;7.730;2023-06-14T06:37:01;22.52;45.23
67093;SHT31;54011;50.772;7.730;2023-06-14T06:39:26;22.72;45.10
67093;SHT31;54011;50.772;7.730;2023-06-14T06:41:51;22.88;44.84
67093;SHT31;54011;50.772;7.730;2023-06-14T06:44:26;22.72;44.85
67093;SHT31;54011;50.772;7.730;2023-06-14T06:46:53;23.31;44.77
67093;SHT31;54011;50.772;7.730;2023-06-14T06:49:19;22.95;44.71
67093;SHT31;54011;50.772;7.730;2023-06-14T06:51:59;22.82;45.20
67093;SHT31;54011;50.772;7.730;2023-06-14T06:54:26;23.17;44.24
67093;SHT31;54011;50.772;7.730;2023-06-14T06:56:52;23.16;44.27
67093;SHT31;54011;50.772;7.730;2023-06-14T06:59:17;23.41;43.80
67093;SHT31;54011;50.772;7.730;2023-06-14T07:01:43;23.46;43.92
67093;SHT31;54011;50.772;7.730;2023-06-14T07:04:08;23.61;42.90
67093;SHT31;54011;50.772;7.730;2023-06-14T07:06:35;23.47;42.84
67093;SHT31;54011;50.772;7.730;2023-06-14T07:09:02;23.60;42.88
67093;SHT31;54011;50.772;7.730;2023-06-14T07:11:30;23.88;42.49
67093;SHT31;54011;50.772;7.730;2023-06-14T07:13:56;23.54;42.27
67093;SHT31;54011;50.772;7.730;2023-06-14T07:16:21;23.67;42.26
67093;SHT31;54011;50.772;7.730;2023-06-14T07:18:47;23.72;42.21
67093;SHT31;54011;50.772;7.730;2023-06-14T07:21:12;24.22;41.34
67093;SHT31;54011;50.772;7.730;2023-06-14T07:23:38;23.68;42.30
67093;SHT31;54011;50.772;7.730;2023-06-14T07:26:04;23.70;41.79
67093;SHT31;54011;50.772;7.730;2023-06-14T07:28:30;24.02;41.44
67093;SHT31;54011;50.772;7.730;2023-06-14T07:30:55;24.23;41.15
67093;SHT31;54011;50.772;7.730;2023-06-14T07:33:22;23.95;41.40
67093;SHT31;54011;50.772;7.730;2023-06-14T07:35:48;24.50;40.79
67093;SHT31;54011;50.772;7.730;2023-06-14T07:38:14;24.67;41.10
67093;SHT31;54011;50.772;7.730;2023-06-14T07:40:40;24.40;41.14
67093;SHT31;54011;50.772;7.730;2023-06-14T07:43:05;24.53;40.95
67093;SHT31;54011;50.772;7.730;2023-06-14T07:45:31;24.33;40.77
67093;SHT31;54011;50.772;7.730;2023-06-14T07:47:56;24.91;39.97
67093;SHT31;54011;50.772;7.730;2023-06-14T07:50:22;24.08;40.68
67093;SHT31;54011;50.772;7.730;2023-06-14T07:52:47;24.40;41.00
67093;SHT31;54011;50.772;7.730;2023-06-14T07:55:14;24.73;40.16
67093;SHT31;54011;50.772;7.730;2023-06-14T07:57:40;25.20;39.25
67093;SHT31;54011;50.772;7.730;2023-06-14T08:00:06;24.69;39.02
67093;SHT31;54011;50.772;7.730;2023-06-14T08:02:37;24.64;40.09
67093;SHT31;54011;50.772;7.730;2023-06-14T08:05:04;25.21;39.25
67093;SHT31;54011;50.772;7.730;2023-06-14T08:07:29;25.00;39.73
67093;SHT31;54011;50.772;7.730;2023-06-14T08:09:56;25.46;38.88
67093;SHT31;54011;50.772;7.730;2023-06-14T08:12:22;25.65;39.44
67093;SHT31;54011;50.772;7.730;2023-06-14T08:14:47;25.76;38.58
67093;SHT31;54011;50.772;7.730;2023-06-14T08:17:13;25.17;38.79
67093;SHT31;54011;50.772;7.730;2023-06-14T08:19:40;25.21;39.06
67093;SHT31;54011;50.772;7.730;2023-06-14T08:22:06;24.97;38.48
67093;SHT31;54011;50.772;7.730;2023-06-14T08:24:32;25.46;38.20
67093;SHT31;54011;50.772;7.730;2023-06-14T08:26:58;25.85;38.13
67093;SHT31;54011;50.772;7.730;2023-06-14T08:29:26;25.31;38.78
67093;SHT31;54011;50.772;7.730;2023-06-14T08:31:54;25.65;37.62
67093;SHT31;54011;50.772;7.730;2023-06-14T08:34:22;25.63;38.65
67093;SHT31;54011;50.772;7.730;2023-06-14T08:36:51;26.31;37.76
67093;SHT31;54011;50.772;7.730;2023-06-14T08:39:16;26.33;37.70
67093;SHT31;54011;50.772;7.730;2023-06-14T08:41:45;26.45;37.47
67093;SHT31;54011;50.772;7.730;2023-06-14T08:44:11;26.81;36.52
67093;SHT31;54011;50.772;7.730;2023-06-14T08:46:38;26.23;37.86
67093;SHT31;54011;50.772;7.730;2023-06-14T08:49:04;25.86;38.10
67093;SHT31;54011;50.772;7.730;2023-06-14T08:51:35;26.23;38.09
67093;SHT31;54011;50.772;7.730;2023-06-14T08:54:02;26.95;37.28
67093;SHT31;54011;50.772;7.730;2023-06-14T08:56:29;26.82;37.10
67093;SHT31;54011;50.772;7.730;2023-06-14T08:58:56;27.39;36.77
67093;SHT31;54011;50.772;7.730;2023-06-14T09:01:23;26.82;37.05
67093;SHT31;54011;50.772;7.730;2023-06-14T09:03:50;26.84;37.28
67093;SHT31;54011;50.772;7.730;2023-06-14T09:06:16;26.87;36.17
67093;SHT31;54011;50.772;7.730;2023-06-14T09:08:46;28.04;36.44
67093;SHT31;54011;50.772;7.730;2023-06-14T09:11:16;27.98;35.82
67093;SHT31;54011;50.772;7.730;2023-06-14T09:13:45;28.15;35.26
67093;SHT31;54011;50.772;7.730;2023-06-14T09:16:10;27.23;35.45
67093;SHT31;54011;50.772;7.730;2023-06-14T09:18:37;27.39;35.79
67093;SHT31;54011;50.772;7.730;2023-06-14T09:21:05;28.42;33.72
67093;SHT31;54011;50.772;7.730;2023-06-14T09:23:35;27.37;35.12
67093;SHT31;54011;50.772;7.730;2023-06-14T09:26:06;27.88;34.90
67093;SHT31;54011;50.772;7.730;2023-06-14T09:28:32;27.76;34.88
67093;SHT31;54011;50.772;7.730;2023-06-14T09:30:58;28.12;33.61
67093;SHT31;54011;50.772;7.730;2023-06-14T09:33:25;28.60;32.91
67093;SHT31;54011;50.772;7.730;2023-06-14T09:35:51;29.17;32.58
67093;SHT31;54011;50.772;7.730;2023-06-14T09:38:18;29.10;33.01
67093;SHT31;54011;50.772;7.730;2023-06-14T09:40:43;28.58;33.16
67093;SHT31;54011;50.772;7.730;2023-06-14T09:43:11;28.19;33.35
67093;SHT31;54011;50.772;7.730;2023-06-14T09:45:37;28.58;33.25
67093;SHT31;54011;50.772;7.730;2023-06-14T09:48:06;28.79;33.27
67093;SHT31;54011;50.772;7.730;2023-06-14T09:50:32;29.24;31.81
67093;SHT31;54011;50.772;7.730;2023-06-14T09:53:03;29.54;31.88
67093;SHT31;54011;50.772;7.730;2023-06-14T09:55:31;28.76;33.09
67093;SHT31;54011;50.772;7.730;2023-06-14T09:58:00;28.51;33.37
67093;SHT31;54011;50.772;7.730;2023-06-14T10:00:32;29.21;32.14
67093;SHT31;54011;50.772;7.730;2023-06-14T10:03:05;29.44;32.07
67093;SHT31;54011;50.772;7.730;2023-06-14T10:05:32;28.72;32.53
67093;SHT31;54011;50.772;7.730;2023-06-14T10:08:04;28.69;33.21
67093;SHT31;54011;50.772;7.730;2023-06-14T10:10:30;27.68;34.44
67093;SHT31;54011;50.772;7.730;2023-06-14T10:12:56;27.46;35.23
67093;SHT31;54011;50.772;7.730;2023-06-14T10:15:32;29.14;33.68
67093;SHT31;54011;50.772;7.730;2023-06-14T10:18:07;28.53;33.64
67093;SHT31;54011;50.772;7.730;2023-06-14T10:20:45;29.20;32.85
67093;SHT31;54011;50.772;7.730;2023-06-14T10:23:18;29.53;33.35
67093;SHT31;54011;50.772;7.730;2023-06-14T10:25:44;29.28;33.40
67093;SHT31;54011;50.772;7.730;2023-06-14T10:28:17;30.52;32.60
67093;SHT31;54011;50.772;7.730;2023-06-14T10:33:34;30.90;31.81
67093;SHT31;54011;50.772;7.730;2023-06-14T10:41:28;30.19;32.26
67093;SHT31;54011;50.772;7.730;2023-06-14T10:46:46;30.43;31.58
67093;SHT31;54011;50.772;7.730;2023-06-14T10:49:16;30.17;32.06
67093;SHT31;54011;50.772;7.730;2023-06-14T10:51:46;28.19;34.05
67093;SHT31;54011;50.772;7.730;2023-06-14T10:54:20;29.13;33.83
67093;SHT31;54011;50.772;7.730;2023-06-14T10:56:50;30.36;32.54
67093;SHT31;54011;50.772;7.730;2023-06-14T10:59:18;30.33;32.68
67093;SHT31;54011;50.772;7.730;2023-06-14T11:01:53;30.12;32.11
67093;SHT31;54011;50.772;7.730;2023-06-14T11:04:27;30.54;32.08
67093;SHT31;54011;50.772;7.730;2023-06-14T11:07:10;30.92;31.92
67093;SHT31;54011;50.772;7.730;2023-06-14T11:10:03;30.80;32.04
67093;SHT31;54011;50.772;7.730;2023-06-14T11:12:32;31.55;30.40
67093;SHT31;54011;50.772;7.730;2023-06-14T11:14:59;30.39;31.68
67093;SHT31;54011;50.772;7.730;2023-06-14T11:17:26;30.10;32.43
67093;SHT31;54011;50.772;7.730;2023-06-14T11:20:07;30.53;31.93
67093;SHT31;54011;50.772;7.730;2023-06-14T11:22:39;30.40;31.33
67093;SHT31;54011;50.772;7.730;2023-06-14T11:25:08;27.74;34.07
67093;SHT31;54011;50.772;7.730;2023-06-14T11:27:36;29.04;33.07
67093;SHT31;54011;50.772;7.730;2023-06-14T11:30:02;30.23;32.26
67093;SHT31;54011;50.772;7.730;2023-06-14T11:32:28;30.66;30.84
67093;SHT31;54011;50.772;7.730;2023-06-14T11:34:54;31.28;30.74
67093;SHT31;54011;50.772;7.730;2023-06-14T11:37:20;31.28;30.79
67093;SHT31;54011;50.772;7.730;2023-06-14T11:39:46;28.97;33.11
67093;SHT31;54011;50.772;7.730;2023-06-14T11:42:15;30.61;32.64
67093;SHT31;54011;50.772;7.730;2023-06-14T11:44:42;30.44;32.05
67093;SHT31;54011;50.772;7.730;2023-06-14T11:47:07;30.68;32.42
67093;SHT31;54011;50.772;7.730;2023-06-14T11:49:36;29.68;32.20
67093;SHT31;54011;50.772;7.730;2023-06-14T11:52:02;29.86;32.54
67093;SHT31;54011;50.772;7.730;2023-06-14T11:54:28;29.99;33.30
67093;SHT31;54011;50.772;7.730;2023-06-14T11:56:54;30.99;31.43
67093;SHT31;54011;50.772;7.730;2023-06-14T11:59:24;31.43;30.79
67093;SHT31;54011;50.772;7.730;2023-06-14T12:01:49;31.97;29.98
67093;SHT31;54011;50.772;7.730;2023-06-14T12:04:24;32.61;29.56
67093;SHT31;54011;50.772;7.730;2023-06-14T12:06:50;32.14;29.22
67093;SHT31;54011;50.772;7.730;2023-06-14T12:09:19;32.55;29.37
67093;SHT31;54011;50.772;7.730;2023-06-14T12:11:45;32.14;28.90
67093;SHT31;54011;50.772;7.730;2023-06-14T12:14:10;33.15;29.43
67093;SHT31;54011;50.772;7.730;2023-06-14T12:16:40;31.92;29.81
67093;SHT31;54011;50.772;7.730;2023-06-14T12:19:12;31.76;30.25
67093;SHT31;54011;50.772;7.730;2023-06-14T12:21:39;31.02;30.10
67093;SHT31;54011;50.772;7.730;2023-06-14T12:24:08;32.84;28.79
67093;SHT31;54011;50.772;7.730;2023-06-14T12:26:38;33.43;27.98
67093;SHT31;54011;50.772;7.730;2023-06-14T12:29:07;32.23;29.68
67093;SHT31;54011;50.772;7.730;2023-06-14T12:31:33;32.03;30.28
67093;SHT31;54011;50.772;7.730;2023-06-14T12:34:03;32.76;30.07
67093;SHT31;54011;50.772;7.730;2023-06-14T12:36:30;32.82;28.72
67093;SHT31;54011;50.772;7.730;2023-06-14T12:38:57;33.18;28.53
67093;SHT31;54011;50.772;7.730;2023-06-14T12:41:24;32.88;28.31
67093;SHT31;54011;50.772;7.730;2023-06-14T12:43:51;33.25;28.37
67093;SHT31;54011;50.772;7.730;2023-06-14T12:46:17;34.05;28.06
67093;SHT31;54011;50.772;7.730;2023-06-14T12:48:42;33.37;28.80
67093;SHT31;54011;50.772;7.730;2023-06-14T12:51:08;33.25;29.19
67093;SHT31;54011;50.772;7.730;2023-06-14T12:53:34;33.29;28.86
67093;SHT31;54011;50.772;7.730;2023-06-14T12:56:00;31.52;30.11
67093;SHT31;54011;50.772;7.730;2023-06-14T12:58:25;30.56;31.51
67093;SHT31;54011;50.772;7.730;2023-06-14T13:00:51;29.84;32.41
67093;SHT31;54011;50.772;7.730;2023-06-14T13:03:16;31.11;30.60
67093;SHT31;54011;50.772;7.730;2023-06-14T13:05:42;30.40;31.46
67093;SHT31;54011;50.772;7.730;2023-06-14T13:08:08;29.59;32.28
67093;SHT31;54011;50.772;7.730;2023-06-14T13:10:34;31.16;30.47
67093;SHT31;54011;50.772;7.730;2023-06-14T13:13:00;32.02;30.40
67093;SHT31;54011;50.772;7.730;2023-06-14T13:15:26;30.92;31.41
67093;SHT31;54011;50.772;7.730;2023-06-14T13:17:52;32.53;29.95
67093;SHT31;54011;50.772;7.730;2023-06-14T13:20:18;33.26;28.76
67093;SHT31;54011;50.772;7.730;2023-06-14T13:22:44;33.89;27.63
67093;SHT31;54011;50.772;7.730;2023-06-14T13:25:11;33.97;27.33
67093;SHT31;54011;50.772;7.730;2023-06-14T13:27:36;33.29;28.39
67093;SHT31;54011;50.772;7.730;2023-06-14T13:30:03;33.30;28.26
67093;SHT31;54011;50.772;7.730;2023-06-14T13:32:30;35.13;26.63
67093;SHT31;54011;50.772;7.730;2023-06-14T13:34:56;34.47;27.38
67093;SHT31;54011;50.772;7.730;2023-06-14T13:37:21;34.82;26.78
67093;SHT31;54011;50.772;7.730;2023-06-14T13:39:47;34.85;27.04
67093;SHT31;54011;50.772;7.730;2023-06-14T13:42:13;34.92;26.89
67093;SHT31;54011;50.772;7.730;2023-06-14T13:44:40;35.20;26.13
67093;SHT31;54011;50.772;7.730;2023-06-14T13:47:06;35.36;26.29
67093;SHT31;54011;50.772;7.730;2023-06-14T13:49:33;34.39;27.28
67093;SHT31;54011;50.772;7.730;2023-06-14T13:52:00;34.44;27.61
67093;SHT31;54011;50.772;7.730;2023-06-14T13:54:26;36.02;26.63
67093;SHT31;54011;50.772;7.730;2023-06-14T13:56:52;35.88;26.60
67093;SHT31;54011;50.772;7.730;2023-06-14T13:59:17;31.83;29.91
67093;SHT31;54011;50.772;7.730;2023-06-14T14:01:44;31.14;29.91
67093;SHT31;54011;50.772;7.730;2023-06-14T14:04:10;32.07;29.53
67093;SHT31;54011;50.772;7.730;2023-06-14T14:06:36;32.64;28.28
67093;SHT31;54011;50.772;7.730;2023-06-14T14:09:02;34.49;27.22
67093;SHT31;54011;50.772;7.730;2023-06-14T14:11:29;33.32;28.07
67093;SHT31;54011;50.772;7.730;2023-06-14T14:13:58;34.76;26.53
67093;SHT31;54011;50.772;7.730;2023-06-14T14:16:24;34.49;25.84
67093;SHT31;54011;50.772;7.730;2023-06-14T14:18:50;35.29;26.13
67093;SHT31;54011;50.772;7.730;2023-06-14T14:21:15;35.65;26.42
67093;SHT31;54011;50.772;7.730;2023-06-14T14:23:41;36.04;25.31
67093;SHT31;54011;50.772;7.730;2023-06-14T14:26:06;34.98;26.68
67093;SHT31;54011;50.772;7.730;2023-06-14T14:28:32;36.19;25.93
67093;SHT31;54011;50.772;7.730;2023-06-14T14:30:58;34.80;26.45
67093;SHT31;54011;50.772;7.730;2023-06-14T14:33:25;31.22;29.60
67093;SHT31;54011;50.772;7.730;2023-06-14T14:35:50;30.61;30.62
67093;SHT31;54011;50.772;7.730;2023-06-14T14:38:16;32.43;28.90
67093;SHT31;54011;50.772;7.730;2023-06-14T14:40:43;33.46;27.28
67093;SHT31;54011;50.772;7.730;2023-06-14T14:43:09;35.11;26.64
67093;SHT31;54011;50.772;7.730;2023-06-14T14:45:36;35.20;26.65
67093;SHT31;54011;50.772;7.730;2023-06-14T14:48:01;35.73;25.61
67093;SHT31;54011;50.772;7.730;2023-06-14T14:50:29;34.83;26.09
67093;SHT31;54011;50.772;7.730;2023-06-14T14:52:55;33.73;28.00
67093;SHT31;54011;50.772;7.730;2023-06-14T14:55:21;34.75;26.82
67093;SHT31;54011;50.772;7.730;2023-06-14T14:57:49;31.92;29.26
67093;SHT31;54011;50.772;7.730;2023-06-14T15:00:15;31.72;29.75
67093;SHT31;54011;50.772;7.730;2023-06-14T15:02:42;30.84;30.67
67093;SHT31;54011;50.772;7.730;2023-06-14T15:05:08;31.79;29.92
67093;SHT31;54011;50.772;7.730;2023-06-14T15:07:34;30.16;31.72
67093;SHT31;54011;50.772;7.730;2023-06-14T15:10:00;29.64;31.68
67093;SHT31;54011;50.772;7.730;2023-06-14T15:12:26;29.98;31.30
67093;SHT31;54011;50.772;7.730;2023-06-14T15:14:53;32.07;28.95
67093;SHT31;54011;50.772;7.730;2023-06-14T15:17:19;33.73;27.74
67093;SHT31;54011;50.772;7.730;2023-06-14T15:19:45;33.93;28.24
67093;SHT31;54011;50.772;7.730;2023-06-14T15:22:12;34.01;27.07
67093;SHT31;54011;50.772;7.730;2023-06-14T15:24:37;33.25;28.15
67093;SHT31;54011;50.772;7.730;2023-06-14T15:27:04;33.42;28.01
67093;SHT31;54011;50.772;7.730;2023-06-14T15:29:30;34.51;27.09
67093;SHT31;54011;50.772;7.730;2023-06-14T15:31:55;32.72;27.95
67093;SHT31;54011;50.772;7.730;2023-06-14T15:34:24;32.72;27.82
67093;SHT31;54011;50.772;7.730;2023-06-14T15:36:50;34.05;26.05
67093;SHT31;54011;50.772;7.730;2023-06-14T15:39:26;34.18;26.90
67093;SHT31;54011;50.772;7.730;2023-06-14T15:41:52;35.55;25.38
67093;SHT31;54011;50.772;7.730;2023-06-14T15:44:18;34.52;26.36
67093;SHT31;54011;50.772;7.730;2023-06-14T15:46:43;35.53;25.61